sensor_id;sensor_type;location;lat;lon;timestamp;temperature;humidity
33831;DHT22;20137;48.834;8.732;2023-07-22T00:02:17;13.50;99.90
33831;DHT22;20137;48.834;8.732;2023-07-22T00:04:43;13.40;99.90
33831;DHT22;20137;48.834;8.732;2023-07-22T00:07:09;13.40;99.90
33831;DHT22;20137;48.834;8.732;2023-07-22T00:09:35;13.40;99.90
33831;DHT22;20137;48.834;8.732;2023-07-22T00:12:01;13.40;99.90
33831;DHT22;20137;48.834;8.732;2023-07-22T00:14:27;13.40;99.90
33831;DHT22;20137;48.834;8.732;2023-07-22T00:16:52;13.30;99.90
33831;DHT22;20137;48.834;8.732;2023-07-22T00:19:18;13.30;99.90
33831;DHT22;20137;48.834;8.732;2023-07-22T00:21:44;13.30;99.90
33831;DHT22;20137;48.834;8.732;2023-07-22T00:24:10;13.10;99.90
33831;DHT22;20137;48.834;8.732;2023-07-22T00:26:36;13.10;99.90
33831;DHT22;20137;48.834;8.732;2023-07-22T00:29:02;13.00;99.90
33831;DHT22;20137;48.834;8.732;2023-07-22T00:31:28;12.90;99.90
33831;DHT22;20137;48.834;8.732;2023-07-22T00:33:54;12.80;99.90
33831;DHT22;20137;48.834;8.732;2023-07-22T00:36:20;12.80;99.90
33831;DHT22;20137;48.834;8.732;2023-07-22T00:38:45;12.80;99.90
33831;DHT22;20137;48.834;8.732;2023-07-22T00:41:11;12.90;99.90
33831;DHT22;20137;48.834;8.732;2023-07-22T00:43:41;13.00;99.90
33831;DHT22;20137;48.834;8.732;2023-07-22T00:46:06;13.00;99.90
33831;DHT22;20137;48.834;8.732;2023-07-22T00:48:32;13.00;99.90
33831;DHT22;20137;48.834;8.732;2023-07-22T00:50:58;13.00;99.90
33831;DHT22;20137;48.834;8.732;2023-07-22T00:53:24;13.10;99.90
33831;DHT22;20137;48.834;8.732;2023-07-22T00:55:51;13.00;99.90
33831;DHT22;20137;48.834;8.732;2023-07-22T00:58:16;13.10;99.90
33831;DHT22;20137;48.834;8.732;2023-07-22T01:00:42;13.10;99.90
33831;DHT22;20137;48.834;8.732;2023-07-22T01:03:08;13.10;99.90
33831;DHT22;20137;48.834;8.732;2023-07-22T01:05:34;13.10;99.90
33831;DHT22;20137;48.834;8.732;2023-07-22T01:08:02;13.10;99.90
33831;DHT22;20137;48.834;8.732;2023-07-22T01:10:28;13.10;99.90
33831;DHT22;20137;48.834;8.732;2023-07-22T01:12:55;13.10;99.90
33831;DHT22;20137;48.834;8.732;2023-07-22T01:15:21;13.10;99.90
33831;DHT22;20137;48.834;8.732;2023-07-22T01:17:48;13.10;99.90
33831;DHT22;20137;48.834;8.732;2023-07-22T01:20:15;13.10;99.90
33831;DHT22;20137;48.834;8.732;2023-07-22T01:22:48;13.10;99.90
33831;DHT22;20137;48.834;8.732;2023-07-22T01:25:15;13.10;99.90
33831;DHT22;20137;48.834;8.732;2023-07-22T01:27:41;13.10;99.90
33831;DHT22;20137;48.834;8.732;2023-07-22T01:30:07;13.10;99.90
33831;DHT22;20137;48.834;8.732;2023-07-22T01:32:35;13.10;99.90
33831;DHT22;20137;48.834;8.732;2023-07-22T01:35:00;13.00;99.90
33831;DHT22;20137;48.834;8.732;2023-07-22T01:37:26;13.10;99.90
33831;DHT22;20137;48.834;8.732;2023-07-22T01:39:52;13.00;99.90
33831;DHT22;20137;48.834;8.732;2023-07-22T01:42:18;13.00;99.90
33831;DHT22;20137;48.834;8.732;2023-07-22T01:44:44;13.00;99.90
33831;DHT22;20137;48.834;8.732;2023-07-22T01:47:10;13.00;99.90
33831;DHT22;20137;48.834;8.732;2023-07-22T01:49:35;13.00;99.90
33831;DHT22;20137;48.834;8.732;2023-07-22T01:52:01;13.00;99.90
33831;DHT22;20137;48.834;8.732;2023-07-22T01:54:27;12.90;99.90
33831;DHT22;20137;48.834;8.732;2023-07-22T01:56:53;12.90;99.90
33831;DHT22;20137;48.834;8.732;2023-07-22T01:59:19;12.80;99.90
33831;DHT22;20137;48.834;8.732;2023-07-22T02:01:45;12.80;99.90
33831;DHT22;20137;48.834;8.732;2023-07-22T02:04:13;12.70;99.90
33831;DHT22;20137;48.834;8.732;2023-07-22T02:06:39;12.70;99.90
33831;DHT22;20137;48.834;8.732;2023-07-22T02:09:05;12.70;99.90
33831;DHT22;20137;48.834;8.732;2023-07-22T02:11:35;12.70;99.90
33831;DHT22;20137;48.834;8.732;2023-07-22T02:14:01;12.60;99.90
33831;DHT22;20137;48.834;8.732;2023-07-22T02:16:28;12.60;99.90
33831;DHT22;20137;48.834;8.732;2023-07-22T02:19:02;12.60;99.90
33831;DHT22;20137;48.834;8.732;2023-07-22T02:21:32;12.60;99.90
33831;DHT22;20137;48.834;8.732;2023-07-22T02:23:58;12.60;99.90
33831;DHT22;20137;48.834;8.732;2023-07-22T02:26:23;12.60;99.90
33831;DHT22;20137;48.834;8.732;2023-07-22T02:28:49;12.50;99.90
33831;DHT22;20137;48.834;8.732;2023-07-22T02:31:18;12.50;99.90
33831;DHT22;20137;48.834;8.732;2023-07-22T02:33:43;12.50;99.90
33831;DHT22;20137;48.834;8.732;2023-07-22T02:36:09;12.40;99.90
33831;DHT22;20137;48.834;8.732;2023-07-22T02:38:35;12.40;99.90
33831;DHT22;20137;48.834;8.732;2023-07-22T02:41:10;12.30;99.90
33831;DHT22;20137;48.834;8.732;2023-07-22T02:43:36;12.30;99.90
33831;DHT22;20137;48.834;8.732;2023-07-22T02:46:04;12.30;99.90
33831;DHT22;20137;48.834;8.732;2023-07-22T02:48:32;12.30;99.90
33831;DHT22;20137;48.834;8.732;2023-07-22T02:51:08;12.30;99.90
33831;DHT22;20137;48.834;8.732;2023-07-22T02:53:33;12.30;99.90
33831;DHT22;20137;48.834;8.732;2023-07-22T02:56:02;12.30;99.90
33831;DHT22;20137;48.834;8.732;2023-07-22T02:58:28;12.30;99.90
33831;DHT22;20137;48.834;8.732;2023-07-22T03:00:54;12.30;99.90
33831;DHT22;20137;48.834;8.732;2023-07-22T03:03:19;12.30;99.90
33831;DHT22;20137;48.834;8.732;2023-07-22T03:05:45;12.30;99.90
33831;DHT22;20137;48.834;8.732;2023-07-22T03:08:12;12.30;99.90
33831;DHT22;20137;48.834;8.732;2023-07-22T03:10:38;12.40;99.90
33831;DHT22;20137;48.834;8.732;2023-07-22T03:13:04;12.40;99.90
33831;DHT22;20137;48.834;8.732;2023-07-22T03:15:30;12.40;99.90
33831;DHT22;20137;48.834;8.732;2023-07-22T03:17:56;12.40;99.90
33831;DHT22;20137;48.834;8.732;2023-07-22T03:20:25;12.40;99.90
33831;DHT22;20137;48.834;8.732;2023-07-22T03:22:50;12.40;99.90
33831;DHT22;20137;48.834;8.732;2023-07-22T03:25:17;12.40;99.90
33831;DHT22;20137;48.834;8.732;2023-07-22T03:27:43;12.40;99.90
33831;DHT22;20137;48.834;8.732;2023-07-22T03:30:12;12.40;99.90
33831;DHT22;20137;48.834;8.732;2023-07-22T03:32:42;12.30;99.90
33831;DHT22;20137;48.834;8.732;2023-07-22T03:35:09;12.30;99.90
33831;DHT22;20137;48.834;8.732;2023-07-22T03:37:36;12.30;99.90
33831;DHT22;20137;48.834;8.732;2023-07-22T03:40:10;12.20;99.90
33831;DHT22;20137;48.834;8.732;2023-07-22T03:42:58;12.30;99.90
33831;DHT22;20137;48.834;8.732;2023-07-22T03:45:24;12.30;99.90
33831;DHT22;20137;48.834;8.732;2023-07-22T03:47:57;12.40;99.90
33831;DHT22;20137;48.834;8.732;2023-07-22T03:50:23;12.50;99.90
33831;DHT22;20137;48.834;8.732;2023-07-22T03:52:49;12.60;99.90
33831;DHT22;20137;48.834;8.732;2023-07-22T03:55:14;12.60;99.90
33831;DHT22;20137;48.834;8.732;2023-07-22T03:57:40;12.70;99.90
33831;DHT22;20137;48.834;8.732;2023-07-22T04:00:06;12.80;99.90
33831;DHT22;20137;48.834;8.732;2023-07-22T04:02:35;12.80;99.90
33831;DHT22;20137;48.834;8.732;2023-07-22T04:05:01;12.90;99.90
33831;DHT22;20137;48.834;8.732;2023-07-22T04:07:27;12.90;99.90
33831;DHT22;20137;48.834;8.732;2023-07-22T04:09:53;13.00;99.90
33831;DHT22;20137;48.834;8.732;2023-07-22T04:12:19;13.00;99.90
33831;DHT22;20137;48.834;8.732;2023-07-22T04:14:44;13.00;99.90
33831;DHT22;20137;48.834;8.732;2023-07-22T04:17:10;13.10;99.90
33831;DHT22;20137;48.834;8.732;2023-07-22T04:19:36;13.10;99.90
33831;DHT22;20137;48.834;8.732;2023-07-22T04:22:02;13.20;99.90
33831;DHT22;20137;48.834;8.732;2023-07-22T04:24:30;13.20;99.90
33831;DHT22;20137;48.834;8.732;2023-07-22T04:26:56;13.30;99.90
33831;DHT22;20137;48.834;8.732;2023-07-22T04:29:22;13.40;99.90
33831;DHT22;20137;48.834;8.732;2023-07-22T04:31:48;13.40;99.90
33831;DHT22;20137;48.834;8.732;2023-07-22T04:34:14;13.50;99.90
33831;DHT22;20137;48.834;8.732;2023-07-22T04:36:40;13.60;99.90
33831;DHT22;20137;48.834;8.732;2023-07-22T04:39:05;13.70;99.90
33831;DHT22;20137;48.834;8.732;2023-07-22T04:41:32;13.80;99.90
33831;DHT22;20137;48.834;8.732;2023-07-22T04:43:58;13.90;99.90
33831;DHT22;20137;48.834;8.732;2023-07-22T04:46:24;13.90;99.90
33831;DHT22;20137;48.834;8.732;2023-07-22T04:48:53;14.00;99.90
33831;DHT22;20137;48.834;8.732;2023-07-22T04:51:19;14.20;99.90
33831;DHT22;20137;48.834;8.732;2023-07-22T04:53:44;14.30;99.90
33831;DHT22;20137;48.834;8.732;2023-07-22T04:56:10;14.70;99.90
33831;DHT22;20137;48.834;8.732;2023-07-22T04:58:36;15.20;99.90
33831;DHT22;20137;48.834;8.732;2023-07-22T05:01:02;15.70;99.90
33831;DHT22;20137;48.834;8.732;2023-07-22T05:03:27;16.20;99.90
33831;DHT22;20137;48.834;8.732;2023-07-22T05:05:53;16.70;99.90
33831;DHT22;20137;48.834;8.732;2023-07-22T05:08:19;17.20;99.90
33831;DHT22;20137;48.834;8.732;2023-07-22T05:10:45;17.60;99.90
33831;DHT22;20137;48.834;8.732;2023-07-22T05:13:10;18.00;99.90
33831;DHT22;20137;48.834;8.732;2023-07-22T05:15:36;18.30;99.90
33831;DHT22;20137;48.834;8.732;2023-07-22T05:18:07;18.70;99.90
33831;DHT22;20137;48.834;8.732;2023-07-22T05:20:33;19.10;99.90
33831;DHT22;20137;48.834;8.732;2023-07-22T05:22:59;19.20;99.90
33831;DHT22;20137;48.834;8.732;2023-07-22T05:25:24;19.40;99.90
33831;DHT22;20137;48.834;8.732;2023-07-22T05:27:50;19.60;99.90
33831;DHT22;20137;48.834;8.732;2023-07-22T05:30:16;19.80;99.90
33831;DHT22;20137;48.834;8.732;2023-07-22T05:32:41;20.00;99.90
33831;DHT22;20137;48.834;8.732;2023-07-22T05:35:07;20.30;99.90
33831;DHT22;20137;48.834;8.732;2023-07-22T05:37:34;20.70;99.90
33831;DHT22;20137;48.834;8.732;2023-07-22T05:40:00;20.90;99.90
33831;DHT22;20137;48.834;8.732;2023-07-22T05:42:26;20.70;99.90
33831;DHT22;20137;48.834;8.732;2023-07-22T05:44:54;20.50;99.90
33831;DHT22;20137;48.834;8.732;2023-07-22T05:47:22;19.90;99.90
33831;DHT22;20137;48.834;8.732;2023-07-22T05:49:47;19.30;99.90
33831;DHT22;20137;48.834;8.732;2023-07-22T05:52:13;18.90;99.90
33831;DHT22;20137;48.834;8.732;2023-07-22T05:54:39;18.60;99.90
33831;DHT22;20137;48.834;8.732;2023-07-22T05:57:05;18.40;99.90
33831;DHT22;20137;48.834;8.732;2023-07-22T05:59:31;18.40;99.90
33831;DHT22;20137;48.834;8.732;2023-07-22T06:01:57;18.40;99.90
33831;DHT22;20137;48.834;8.732;2023-07-22T06:04:22;18.60;99.90
33831;DHT22;20137;48.834;8.732;2023-07-22T06:06:48;18.70;99.90
33831;DHT22;20137;48.834;8.732;2023-07-22T06:09:14;18.90;99.90
33831;DHT22;20137;48.834;8.732;2023-07-22T06:11:40;19.00;99.90
33831;DHT22;20137;48.834;8.732;2023-07-22T06:14:05;19.10;99.90
33831;DHT22;20137;48.834;8.732;2023-07-22T06:16:32;19.20;99.90
33831;DHT22;20137;48.834;8.732;2023-07-22T06:18:57;19.30;99.90
33831;DHT22;20137;48.834;8.732;2023-07-22T06:21:23;19.60;99.90
33831;DHT22;20137;48.834;8.732;2023-07-22T06:23:50;19.80;99.90
33831;DHT22;20137;48.834;8.732;2023-07-22T06:26:16;19.90;99.90
33831;DHT22;20137;48.834;8.732;2023-07-22T06:28:41;20.10;99.90
33831;DHT22;20137;48.834;8.732;2023-07-22T06:31:07;20.30;99.90
33831;DHT22;20137;48.834;8.732;2023-07-22T06:33:33;20.30;99.90
33831;DHT22;20137;48.834;8.732;2023-07-22T06:35:59;20.40;99.90
33831;DHT22;20137;48.834;8.732;2023-07-22T06:38:25;20.50;99.90
33831;DHT22;20137;48.834;8.732;2023-07-22T06:40:52;20.30;99.90
33831;DHT22;20137;48.834;8.732;2023-07-22T06:43:19;20.20;99.90
33831;DHT22;20137;48.834;8.732;2023-07-22T06:45:44;20.10;99.90
33831;DHT22;20137;48.834;8.732;2023-07-22T06:48:10;20.10;99.90
33831;DHT22;20137;48.834;8.732;2023-07-22T06:50:36;20.20;99.90
33831;DHT22;20137;48.834;8.732;2023-07-22T06:53:01;20.20;99.90
33831;DHT22;20137;48.834;8.732;2023-07-22T06:55:27;20.30;99.90
33831;DHT22;20137;48.834;8.732;2023-07-22T06:57:56;20.50;99.90
33831;DHT22;20137;48.834;8.732;2023-07-22T07:00:22;20.70;99.90
33831;DHT22;20137;48.834;8.732;2023-07-22T07:02:47;20.90;99.90
33831;DHT22;20137;48.834;8.732;2023-07-22T07:05:13;21.00;99.90
33831;DHT22;20137;48.834;8.732;2023-07-22T07:07:39;21.00;99.60
33831;DHT22;20137;48.834;8.732;2023-07-22T07:10:06;21.10;98.40
33831;DHT22;20137;48.834;8.732;2023-07-22T07:12:32;21.00;98.60
33831;DHT22;20137;48.834;8.732;2023-07-22T07:14:58;20.90;98.60
33831;DHT22;20137;48.834;8.732;2023-07-22T07:17:24;20.70;98.00
33831;DHT22;20137;48.834;8.732;2023-07-22T07:19:49;20.50;99.00
33831;DHT22;20137;48.834;8.732;2023-07-22T07:22:15;20.40;98.30
33831;DHT22;20137;48.834;8.732;2023-07-22T07:24:41;20.20;99.40
33831;DHT22;20137;48.834;8.732;2023-07-22T07:27:07;20.10;99.40
33831;DHT22;20137;48.834;8.732;2023-07-22T07:29:33;20.30;99.00
33831;DHT22;20137;48.834;8.732;2023-07-22T07:31:59;20.40;99.30
33831;DHT22;20137;48.834;8.732;2023-07-22T07:34:24;20.40;98.50
33831;DHT22;20137;48.834;8.732;2023-07-22T07:36:50;20.40;98.20
33831;DHT22;20137;48.834;8.732;2023-07-22T07:39:16;20.30;97.80
33831;DHT22;20137;48.834;8.732;2023-07-22T07:41:42;20.40;97.80
33831;DHT22;20137;48.834;8.732;2023-07-22T07:44:08;20.40;98.20
33831;DHT22;20137;48.834;8.732;2023-07-22T07:46:33;20.40;98.30
33831;DHT22;20137;48.834;8.732;2023-07-22T07:49:00;20.50;97.80
33831;DHT22;20137;48.834;8.732;2023-07-22T07:51:27;20.80;98.20
33831;DHT22;20137;48.834;8.732;2023-07-22T07:53:54;21.00;97.20
33831;DHT22;20137;48.834;8.732;2023-07-22T07:56:21;20.90;97.20
33831;DHT22;20137;48.834;8.732;2023-07-22T07:58:48;20.70;96.90
33831;DHT22;20137;48.834;8.732;2023-07-22T08:01:15;20.70;97.30
33831;DHT22;20137;48.834;8.732;2023-07-22T08:03:42;20.80;97.20
33831;DHT22;20137;48.834;8.732;2023-07-22T08:06:10;20.90;95.70
33831;DHT22;20137;48.834;8.732;2023-07-22T08:08:36;20.80;96.30
33831;DHT22;20137;48.834;8.732;2023-07-22T08:11:12;20.90;96.80
33831;DHT22;20137;48.834;8.732;2023-07-22T08:13:42;20.90;96.60
33831;DHT22;20137;48.834;8.732;2023-07-22T08:16:10;21.00;96.30
33831;DHT22;20137;48.834;8.732;2023-07-22T08:18:36;21.10;95.90
33831;DHT22;20137;48.834;8.732;2023-07-22T08:21:04;21.00;96.30
33831;DHT22;20137;48.834;8.732;2023-07-22T08:23:30;21.10;96.60
33831;DHT22;20137;48.834;8.732;2023-07-22T08:25:56;21.30;96.60
33831;DHT22;20137;48.834;8.732;2023-07-22T08:28:22;21.50;96.70
33831;DHT22;20137;48.834;8.732;2023-07-22T08:30:48;21.60;95.50
33831;DHT22;20137;48.834;8.732;2023-07-22T08:33:14;21.40;96.70
33831;DHT22;20137;48.834;8.732;2023-07-22T08:35:40;21.20;96.10
33831;DHT22;20137;48.834;8.732;2023-07-22T08:38:06;21.00;95.80
33831;DHT22;20137;48.834;8.732;2023-07-22T08:40:35;21.00;95.50
33831;DHT22;20137;48.834;8.732;2023-07-22T08:43:02;21.00;96.10
33831;DHT22;20137;48.834;8.732;2023-07-22T08:45:30;20.90;95.70
33831;DHT22;20137;48.834;8.732;2023-07-22T08:48:07;20.90;95.70
33831;DHT22;20137;48.834;8.732;2023-07-22T08:50:44;21.20;95.50
33831;DHT22;20137;48.834;8.732;2023-07-22T08:53:10;21.40;95.60
33831;DHT22;20137;48.834;8.732;2023-07-22T08:55:38;21.70;94.60
33831;DHT22;20137;48.834;8.732;2023-07-22T08:58:10;21.90;94.20
33831;DHT22;20137;48.834;8.732;2023-07-22T09:00:37;21.80;94.60
33831;DHT22;20137;48.834;8.732;2023-07-22T09:03:04;21.70;95.00
33831;DHT22;20137;48.834;8.732;2023-07-22T09:05:32;21.70;95.10
33831;DHT22;20137;48.834;8.732;2023-07-22T09:07:59;21.80;94.50
33831;DHT22;20137;48.834;8.732;2023-07-22T09:10:27;21.70;94.40
33831;DHT22;20137;48.834;8.732;2023-07-22T09:12:56;21.70;95.10
33831;DHT22;20137;48.834;8.732;2023-07-22T09:15:22;21.80;94.80
33831;DHT22;20137;48.834;8.732;2023-07-22T09:17:49;22.00;93.60
33831;DHT22;20137;48.834;8.732;2023-07-22T09:20:15;22.30;94.40
33831;DHT22;20137;48.834;8.732;2023-07-22T09:22:49;22.40;94.00
33831;DHT22;20137;48.834;8.732;2023-07-22T09:25:18;22.60;93.50
33831;DHT22;20137;48.834;8.732;2023-07-22T09:27:54;22.60;93.70
33831;DHT22;20137;48.834;8.732;2023-07-22T09:32:52;22.20;93.70
33831;DHT22;20137;48.834;8.732;2023-07-22T09:35:18;22.00;94.10
33831;DHT22;20137;48.834;8.732;2023-07-22T09:37:44;21.90;94.40
33831;DHT22;20137;48.834;8.732;2023-07-22T09:40:18;22.00;94.30
33831;DHT22;20137;48.834;8.732;2023-07-22T09:42:49;22.30;94.50
33831;DHT22;20137;48.834;8.732;2023-07-22T09:45:17;22.40;94.10
33831;DHT22;20137;48.834;8.732;2023-07-22T09:47:45;22.50;93.90
33831;DHT22;20137;48.834;8.732;2023-07-22T09:50:15;23.00;94.60
33831;DHT22;20137;48.834;8.732;2023-07-22T09:52:48;23.30;92.90
33831;DHT22;20137;48.834;8.732;2023-07-22T09:55:22;23.60;92.90
33831;DHT22;20137;48.834;8.732;2023-07-22T09:58:02;23.70;92.60
33831;DHT22;20137;48.834;8.732;2023-07-22T10:00:29;23.60;93.60
33831;DHT22;20137;48.834;8.732;2023-07-22T10:03:00;23.50;92.00
33831;DHT22;20137;48.834;8.732;2023-07-22T10:05:27;23.40;92.70
33831;DHT22;20137;48.834;8.732;2023-07-22T10:07:56;23.30;93.30
33831;DHT22;20137;48.834;8.732;2023-07-22T10:10:35;23.00;93.30
33831;DHT22;20137;48.834;8.732;2023-07-22T10:13:03;22.60;94.00
33831;DHT22;20137;48.834;8.732;2023-07-22T10:15:30;22.40;93.30
33831;DHT22;20137;48.834;8.732;2023-07-22T10:17:57;22.00;94.70
33831;DHT22;20137;48.834;8.732;2023-07-22T10:20:23;21.80;94.30
33831;DHT22;20137;48.834;8.732;2023-07-22T10:22:50;21.70;94.70
33831;DHT22;20137;48.834;8.732;2023-07-22T10:25:18;21.80;95.10
33831;DHT22;20137;48.834;8.732;2023-07-22T10:27:44;22.00;92.90
33831;DHT22;20137;48.834;8.732;2023-07-22T10:30:15;22.00;94.80
33831;DHT22;20137;48.834;8.732;2023-07-22T10:38:13;23.00;94.20
33831;DHT22;20137;48.834;8.732;2023-07-22T10:40:47;23.30;94.20
33831;DHT22;20137;48.834;8.732;2023-07-22T10:43:15;23.30;93.80
33831;DHT22;20137;48.834;8.732;2023-07-22T10:45:48;22.90;93.70
33831;DHT22;20137;48.834;8.732;2023-07-22T10:48:15;23.00;94.20
33831;DHT22;20137;48.834;8.732;2023-07-22T10:50:45;23.20;93.60
33831;DHT22;20137;48.834;8.732;2023-07-22T11:01:34;23.60;93.20
33831;DHT22;20137;48.834;8.732;2023-07-22T11:04:13;23.60;92.10
33831;DHT22;20137;48.834;8.732;2023-07-22T11:06:52;23.40;92.30
33831;DHT22;20137;48.834;8.732;2023-07-22T11:11:54;23.30;92.20
33831;DHT22;20137;48.834;8.732;2023-07-22T11:14:24;23.30;93.10
33831;DHT22;20137;48.834;8.732;2023-07-22T11:16:51;23.30;92.10
33831;DHT22;20137;48.834;8.732;2023-07-22T11:19:21;23.30;92.70
33831;DHT22;20137;48.834;8.732;2023-07-22T11:21:49;23.30;93.20
33831;DHT22;20137;48.834;8.732;2023-07-22T11:24:15;23.30;92.50
33831;DHT22;20137;48.834;8.732;2023-07-22T11:26:42;23.30;92.40
33831;DHT22;20137;48.834;8.732;2023-07-22T11:29:09;23.30;92.00
33831;DHT22;20137;48.834;8.732;2023-07-22T11:31:40;23.20;92.60
33831;DHT22;20137;48.834;8.732;2023-07-22T11:34:11;23.40;92.90
33831;DHT22;20137;48.834;8.732;2023-07-22T11:36:36;23.40;92.60
33831;DHT22;20137;48.834;8.732;2023-07-22T11:39:22;23.40;93.40
33831;DHT22;20137;48.834;8.732;2023-07-22T11:41:50;23.40;93.20
33831;DHT22;20137;48.834;8.732;2023-07-22T11:44:17;23.60;93.00
33831;DHT22;20137;48.834;8.732;2023-07-22T11:49:39;24.30;90.40
33831;DHT22;20137;48.834;8.732;2023-07-22T11:54:34;24.30;90.70
33831;DHT22;20137;48.834;8.732;2023-07-22T11:57:29;24.50;90.40
33831;DHT22;20137;48.834;8.732;2023-07-22T11:59:56;24.50;90.60
33831;DHT22;20137;48.834;8.732;2023-07-22T12:02:27;24.20;90.90
33831;DHT22;20137;48.834;8.732;2023-07-22T12:04:59;23.90;91.70
33831;DHT22;20137;48.834;8.732;2023-07-22T12:07:28;23.60;91.40
33831;DHT22;20137;48.834;8.732;2023-07-22T12:09:59;23.60;91.00
33831;DHT22;20137;48.834;8.732;2023-07-22T12:12:35;23.80;91.80
33831;DHT22;20137;48.834;8.732;2023-07-22T12:15:16;23.70;90.70
33831;DHT22;20137;48.834;8.732;2023-07-22T12:17:55;23.60;91.00
33831;DHT22;20137;48.834;8.732;2023-07-22T12:20:33;23.60;91.10
33831;DHT22;20137;48.834;8.732;2023-07-22T12:22:59;23.40;91.00
33831;DHT22;20137;48.834;8.732;2023-07-22T12:25:25;23.30;91.00
33831;DHT22;20137;48.834;8.732;2023-07-22T12:27:51;23.60;92.10
33831;DHT22;20137;48.834;8.732;2023-07-22T12:30:17;23.90;91.60
33831;DHT22;20137;48.834;8.732;2023-07-22T12:32:42;24.20;91.60
33831;DHT22;20137;48.834;8.732;2023-07-22T12:35:09;23.80;91.30
33831;DHT22;20137;48.834;8.732;2023-07-22T12:37:35;23.70;90.70
33831;DHT22;20137;48.834;8.732;2023-07-22T12:40:00;23.80;90.20
33831;DHT22;20137;48.834;8.732;2023-07-22T12:42:26;24.10;90.70
33831;DHT22;20137;48.834;8.732;2023-07-22T12:44:52;24.30;90.10
33831;DHT22;20137;48.834;8.732;2023-07-22T12:47:18;24.50;90.40
33831;DHT22;20137;48.834;8.732;2023-07-22T12:49:43;24.20;91.60
33831;DHT22;20137;48.834;8.732;2023-07-22T12:52:09;23.70;92.50
33831;DHT22;20137;48.834;8.732;2023-07-22T12:54:35;23.40;92.10
33831;DHT22;20137;48.834;8.732;2023-07-22T12:57:01;23.40;92.90
33831;DHT22;20137;48.834;8.732;2023-07-22T12:59:27;23.70;92.90
33831;DHT22;20137;48.834;8.732;2023-07-22T13:01:53;23.70;92.80
33831;DHT22;20137;48.834;8.732;2023-07-22T13:04:19;23.60;92.00
33831;DHT22;20137;48.834;8.732;2023-07-22T13:06:45;23.60;91.40
33831;DHT22;20137;48.834;8.732;2023-07-22T13:09:10;23.40;91.80
33831;DHT22;20137;48.834;8.732;2023-07-22T13:11:36;23.70;91.50
33831;DHT22;20137;48.834;8.732;2023-07-22T13:14:02;23.70;90.70
33831;DHT22;20137;48.834;8.732;2023-07-22T13:16:28;23.70;91.60
33831;DHT22;20137;48.834;8.732;2023-07-22T13:18:54;23.70;91.10
33831;DHT22;20137;48.834;8.732;2023-07-22T13:21:20;23.60;90.30
33831;DHT22;20137;48.834;8.732;2023-07-22T13:23:45;23.80;91.00
33831;DHT22;20137;48.834;8.732;2023-07-22T13:26:11;24.30;90.90
33831;DHT22;20137;48.834;8.732;2023-07-22T13:28:37;24.40;90.30
33831;DHT22;20137;48.834;8.732;2023-07-22T13:31:03;24.10;89.30
33831;DHT22;20137;48.834;8.732;2023-07-22T13:33:28;24.00;90.30
33831;DHT22;20137;48.834;8.732;2023-07-22T13:35:54;24.20;90.30
33831;DHT22;20137;48.834;8.732;2023-07-22T13:38:19;24.50;90.00
33831;DHT22;20137;48.834;8.732;2023-07-22T13:40:46;25.00;90.60
33831;DHT22;20137;48.834;8.732;2023-07-22T13:43:12;24.70;87.90
33831;DHT22;20137;48.834;8.732;2023-07-22T13:45:38;24.40;87.90
33831;DHT22;20137;48.834;8.732;2023-07-22T13:48:04;24.40;90.60
33831;DHT22;20137;48.834;8.732;2023-07-22T13:50:30;24.30;90.00
33831;DHT22;20137;48.834;8.732;2023-07-22T13:52:56;24.20;89.80
33831;DHT22;20137;48.834;8.732;2023-07-22T13:55:21;24.40;89.90
33831;DHT22;20137;48.834;8.732;2023-07-22T13:57:47;24.30;89.40
33831;DHT22;20137;48.834;8.732;2023-07-22T14:00:13;24.20;90.00
33831;DHT22;20137;48.834;8.732;2023-07-22T14:02:40;24.20;90.40
33831;DHT22;20137;48.834;8.732;2023-07-22T14:05:06;24.50;89.00
33831;DHT22;20137;48.834;8.732;2023-07-22T14:07:32;24.60;87.90
33831;DHT22;20137;48.834;8.732;2023-07-22T14:09:58;24.10;88.30
33831;DHT22;20137;48.834;8.732;2023-07-22T14:12:24;24.20;89.80
33831;DHT22;20137;48.834;8.732;2023-07-22T14:14:50;24.30;88.70
33831;DHT22;20137;48.834;8.732;2023-07-22T14:17:16;24.00;88.20
33831;DHT22;20137;48.834;8.732;2023-07-22T14:19:41;24.00;88.80
33831;DHT22;20137;48.834;8.732;2023-07-22T14:22:07;23.80;88.70
33831;DHT22;20137;48.834;8.732;2023-07-22T14:24:34;23.80;88.00
33831;DHT22;20137;48.834;8.732;2023-07-22T14:27:00;23.60;89.80
33831;DHT22;20137;48.834;8.732;2023-07-22T14:29:26;23.90;88.00
33831;DHT22;20137;48.834;8.732;2023-07-22T14:31:52;24.00;87.60
33831;DHT22;20137;48.834;8.732;2023-07-22T14:34:17;23.90;87.80
33831;DHT22;20137;48.834;8.732;2023-07-22T14:36:43;23.60;88.90
33831;DHT22;20137;48.834;8.732;2023-07-22T14:39:09;23.50;89.70
33831;DHT22;20137;48.834;8.732;2023-07-22T14:41:35;23.40;89.10
33831;DHT22;20137;48.834;8.732;2023-07-22T14:44:01;23.70;90.30
33831;DHT22;20137;48.834;8.732;2023-07-22T14:46:26;23.90;89.30
33831;DHT22;20137;48.834;8.732;2023-07-22T14:48:52;24.00;89.60
33831;DHT22;20137;48.834;8.732;2023-07-22T14:51:18;23.90;88.20
33831;DHT22;20137;48.834;8.732;2023-07-22T14:53:44;23.80;89.10
33831;DHT22;20137;48.834;8.732;2023-07-22T14:56:10;23.70;89.40
33831;DHT22;20137;48.834;8.732;2023-07-22T14:58:36;23.90;89.30
33831;DHT22;20137;48.834;8.732;2023-07-22T15:01:01;24.00;89.60
33831;DHT22;20137;48.834;8.732;2023-07-22T15:03:27;23.80;89.00
33831;DHT22;20137;48.834;8.732;2023-07-22T15:05:53;23.70;90.30
33831;DHT22;20137;48.834;8.732;2023-07-22T15:08:19;23.80;90.10
33831;DHT22;20137;48.834;8.732;2023-07-22T15:10:48;24.00;90.10
33831;DHT22;20137;48.834;8.732;2023-07-22T15:13:13;23.90;90.00
33831;DHT22;20137;48.834;8.732;2023-07-22T15:15:39;23.90;89.30
33831;DHT22;20137;48.834;8.732;2023-07-22T15:18:07;23.80;89.40
33831;DHT22;20137;48.834;8.732;2023-07-22T15:20:34;23.50;89.40
33831;DHT22;20137;48.834;8.732;2023-07-22T15:23:00;23.40;90.20
33831;DHT22;20137;48.834;8.732;2023-07-22T15:25:26;23.50;89.80
33831;DHT22;20137;48.834;8.732;2023-07-22T15:27:52;23.50;89.10
33831;DHT22;20137;48.834;8.732;2023-07-22T15:30:17;23.60;90.10
33831;DHT22;20137;48.834;8.732;2023-07-22T15:32:43;23.70;90.40
33831;DHT22;20137;48.834;8.732;2023-07-22T15:35:09;23.70;90.20
33831;DHT22;20137;48.834;8.732;2023-07-22T15:37:35;23.70;90.00
33831;DHT22;20137;48.834;8.732;2023-07-22T15:40:01;23.60;90.20
33831;DHT22;20137;48.834;8.732;2023-07-22T15:42:27;23.60;89.50
33831;DHT22;20137;48.834;8.732;2023-07-22T15:44:52;23.60;89.10
33831;DHT22;20137;48.834;8.732;2023-07-22T15:47:18;23.80;90.00
33831;DHT22;20137;48.834;8.732;2023-07-22T15:49:44;23.60;90.10
33831;DHT22;20137;48.834;8.732;2023-07-22T15:52:09;23.60;90.00
33831;DHT22;20137;48.834;8.732;2023-07-22T15:54:35;23.40;89.90